createdAt,value
2017-04-25T00:00:40.344Z,99.99
2017-04-25T00:01:20.892Z,99.99
2017-04-25T00:02:01.432Z,99.99
2017-04-25T00:02:41.967Z,99.99
2017-04-25T00:03:22.501Z,99.99
2017-04-25T00:04:03.032Z,99.99
2017-04-25T00:04:43.567Z,99.99
2017-04-25T00:05:24.101Z,99.99
2017-04-25T00:06:04.645Z,99.99
2017-04-25T00:06:45.188Z,99.99
2017-04-25T00:07:25.722Z,99.99
2017-04-25T00:08:06.253Z,99.99
2017-04-25T00:09:55.187Z,99.99
2017-04-25T00:10:35.724Z,99.99
2017-04-25T00:11:16.267Z,99.99
2017-04-25T00:11:56.809Z,99.99
2017-04-25T00:12:37.331Z,99.99
2017-04-25T00:13:17.873Z,99.99
2017-04-25T00:13:58.405Z,99.99
2017-04-25T00:14:38.942Z,99.99
2017-04-25T00:15:19.481Z,99.99
2017-04-25T00:16:00.011Z,99.99
2017-04-25T00:16:40.558Z,99.99
2017-04-25T00:17:21.091Z,99.99
2017-04-25T00:18:01.637Z,99.99
2017-04-25T00:18:42.165Z,99.99
2017-04-25T00:19:22.695Z,99.99
2017-04-25T00:20:03.235Z,99.99
2017-04-25T00:20:43.767Z,99.99
2017-04-25T00:21:24.286Z,99.99
2017-04-25T00:22:04.820Z,99.99
2017-04-25T00:22:45.357Z,99.99
2017-04-25T00:23:25.893Z,99.99
2017-04-25T00:24:06.430Z,99.99
2017-04-25T00:24:46.968Z,99.99
2017-04-25T00:25:27.496Z,99.99
2017-04-25T00:26:08.039Z,99.99
2017-04-25T00:26:48.567Z,99.99
2017-04-25T00:27:29.118Z,99.99
2017-04-25T00:28:09.653Z,99.99
2017-04-25T00:28:50.196Z,99.99
2017-04-25T00:29:30.739Z,99.99
2017-04-25T00:30:11.278Z,99.99
2017-04-25T00:30:51.812Z,99.99
2017-04-25T00:31:32.345Z,99.99
2017-04-25T00:32:12.884Z,99.99
2017-04-25T00:32:53.424Z,99.99
2017-04-25T00:33:33.954Z,99.99
2017-04-25T00:34:14.499Z,99.99
2017-04-25T00:34:55.035Z,99.99
2017-04-25T00:35:35.573Z,99.99
2017-04-25T00:36:16.113Z,99.99
2017-04-25T00:36:56.650Z,99.99
2017-04-25T00:37:37.204Z,99.99
2017-04-25T00:38:17.730Z,99.99
2017-04-25T00:38:58.283Z,99.99
2017-04-25T00:39:38.827Z,99.99
2017-04-25T00:40:34.102Z,99.99
2017-04-25T00:41:14.643Z,99.99
2017-04-25T00:41:55.173Z,99.99
2017-04-25T00:42:35.700Z,99.99
2017-04-25T00:43:16.250Z,99.99
2017-04-25T00:43:56.782Z,99.99
2017-04-25T00:44:37.329Z,99.99
2017-04-25T00:45:17.867Z,99.99
2017-04-25T00:45:58.403Z,99.99
2017-04-25T00:46:38.940Z,99.99
2017-04-25T00:47:19.484Z,99.99
2017-04-25T00:48:00.030Z,99.99
2017-04-25T00:48:40.555Z,99.99
2017-04-25T00:49:21.104Z,99.99
2017-04-25T00:50:01.639Z,99.99
2017-04-25T00:50:42.195Z,99.99
2017-04-25T00:51:22.727Z,99.99
2017-04-25T00:52:03.270Z,99.99
2017-04-25T00:52:43.815Z,99.99
2017-04-25T00:53:24.344Z,99.99
2017-04-25T00:54:04.885Z,99.99
2017-04-25T00:54:45.419Z,99.99
2017-04-25T00:55:25.960Z,99.99
2017-04-25T00:56:06.487Z,99.99
2017-04-25T00:56:47.028Z,99.99
2017-04-25T00:57:27.576Z,99.99
2017-04-25T00:58:08.109Z,99.99
2017-04-25T00:58:48.639Z,99.99
2017-04-25T00:59:29.169Z,99.99
2017-04-25T01:00:09.704Z,99.99
2017-04-25T01:00:50.243Z,99.99
2017-04-25T01:01:30.785Z,99.99
2017-04-25T01:02:11.328Z,99.99
2017-04-25T01:02:51.872Z,99.99
2017-04-25T01:03:32.399Z,99.99
2017-04-25T01:04:12.943Z,99.99
2017-04-25T01:04:53.480Z,99.99
2017-04-25T01:05:34.031Z,99.99
2017-04-25T01:06:14.562Z,99.99
2017-04-25T01:06:55.119Z,99.99
2017-04-25T01:07:35.651Z,99.99
2017-04-25T01:08:16.199Z,99.99
2017-04-25T01:08:56.742Z,99.99
2017-04-25T01:09:37.286Z,99.99
2017-04-25T01:10:17.826Z,99.99
2017-04-25T01:10:58.363Z,99.99
2017-04-25T01:11:38.898Z,99.99
2017-04-25T01:12:19.439Z,99.99
2017-04-25T01:12:59.970Z,99.99
2017-04-25T01:13:40.508Z,99.99
2017-04-25T01:14:21.056Z,99.99
2017-04-25T01:15:01.598Z,99.99
2017-04-25T01:15:42.146Z,99.99
2017-04-25T01:16:22.692Z,99.99
2017-04-25T01:17:03.235Z,99.99
2017-04-25T01:17:43.773Z,99.99
2017-04-25T01:18:24.307Z,99.99
2017-04-25T01:19:04.834Z,99.99
2017-04-25T01:19:45.375Z,99.99
2017-04-25T01:20:25.911Z,99.99
2017-04-25T01:21:06.452Z,99.99
2017-04-25T01:21:46.997Z,99.99
2017-04-25T01:22:27.546Z,99.99
2017-04-25T01:23:08.084Z,99.99
2017-04-25T01:23:48.621Z,99.99
2017-04-25T01:24:29.164Z,99.99
2017-04-25T01:25:09.698Z,99.99
2017-04-25T01:25:50.237Z,99.99
2017-04-25T01:26:30.769Z,99.99
2017-04-25T01:27:11.327Z,99.99
2017-04-25T01:27:51.879Z,99.99
2017-04-25T01:28:32.430Z,99.99
2017-04-25T01:29:12.970Z,99.99
2017-04-25T01:29:53.517Z,99.99
2017-04-25T01:30:34.065Z,99.99
2017-04-25T01:31:14.609Z,99.99
2017-04-25T01:31:55.150Z,99.99
2017-04-25T01:32:42.620Z,99.99
2017-04-25T01:33:23.153Z,99.99
2017-04-25T01:34:03.686Z,99.99
2017-04-25T01:34:44.221Z,99.99
2017-04-25T01:35:24.757Z,99.99
2017-04-25T01:36:05.305Z,99.99
2017-04-25T01:36:45.833Z,99.99
2017-04-25T01:37:26.365Z,99.99
2017-04-25T01:38:06.894Z,99.99
2017-04-25T01:38:47.432Z,99.99
2017-04-25T01:39:27.968Z,99.99
2017-04-25T01:40:08.490Z,99.99
2017-04-25T01:40:49.025Z,99.99
2017-04-25T01:41:29.556Z,99.99
2017-04-25T01:42:10.092Z,99.99
2017-04-25T01:42:50.628Z,99.99
2017-04-25T01:43:31.184Z,99.99
2017-04-25T01:44:11.688Z,99.99
2017-04-25T01:44:52.225Z,99.99
2017-04-25T01:45:32.752Z,99.99
2017-04-25T01:46:13.279Z,99.99
2017-04-25T01:46:53.802Z,99.99
2017-04-25T01:47:34.331Z,99.99
2017-04-25T01:48:14.862Z,99.99
2017-04-25T01:48:55.393Z,99.99
2017-04-25T01:51:09.665Z,99.99
2017-04-25T01:51:50.195Z,99.99
2017-04-25T01:52:30.716Z,99.99
2017-04-25T01:53:11.233Z,99.99
2017-04-25T01:53:51.750Z,99.99
2017-04-25T01:54:32.284Z,99.99
2017-04-25T01:55:12.816Z,99.99
2017-04-25T01:55:53.347Z,99.99
2017-04-25T01:56:33.879Z,99.99
2017-04-25T01:57:14.410Z,99.99
2017-04-25T01:57:54.948Z,99.99
2017-04-25T01:58:35.476Z,99.99
2017-04-25T01:59:16.013Z,99.99
2017-04-25T01:59:56.550Z,99.99
2017-04-25T02:00:37.081Z,99.99
2017-04-25T02:01:17.611Z,99.99
2017-04-25T02:01:58.138Z,99.99
2017-04-25T02:02:38.665Z,99.99
2017-04-25T02:03:19.200Z,99.99
2017-04-25T02:03:59.728Z,99.99
2017-04-25T02:04:40.262Z,99.99
2017-04-25T02:05:20.792Z,99.99
2017-04-25T02:06:01.326Z,99.99
2017-04-25T02:06:41.854Z,99.99
2017-04-25T02:07:22.395Z,99.99
2017-04-25T02:08:02.927Z,99.99
2017-04-25T02:08:43.454Z,99.99
2017-04-25T02:09:23.991Z,99.99
2017-04-25T02:10:04.535Z,99.99
2017-04-25T02:10:45.047Z,99.99
2017-04-25T02:11:25.580Z,99.99
2017-04-25T02:12:06.122Z,99.99
2017-04-25T02:12:46.658Z,99.99
2017-04-25T02:13:27.193Z,99.99
2017-04-25T02:14:07.730Z,99.99
2017-04-25T02:14:48.243Z,99.99
2017-04-25T02:15:28.780Z,99.99
2017-04-25T02:16:09.306Z,99.99
2017-04-25T02:16:49.847Z,99.99
2017-04-25T02:17:30.391Z,99.99
2017-04-25T02:18:10.924Z,99.99
2017-04-25T02:18:51.456Z,99.99
2017-04-25T02:19:31.995Z,99.99
2017-04-25T02:20:12.528Z,99.99
2017-04-25T02:20:53.064Z,99.99
2017-04-25T02:21:33.601Z,99.99
2017-04-25T02:22:14.134Z,99.99
2017-04-25T02:22:54.660Z,99.99
2017-04-25T02:23:35.193Z,99.99
2017-04-25T02:24:15.739Z,99.99
2017-04-25T02:24:56.269Z,99.99
2017-04-25T02:25:36.804Z,99.99
2017-04-25T02:26:17.339Z,99.99
2017-04-25T02:26:57.873Z,99.99
2017-04-25T02:27:38.407Z,99.99
2017-04-25T02:28:18.945Z,99.99
2017-04-25T02:28:59.469Z,99.99
2017-04-25T02:29:40.007Z,99.99
2017-04-25T02:30:20.539Z,99.99
2017-04-25T02:31:01.068Z,99.99
2017-04-25T02:31:41.612Z,99.99
2017-04-25T02:32:22.178Z,99.99
2017-04-25T02:33:02.710Z,99.99
2017-04-25T02:33:43.238Z,99.99
2017-04-25T02:34:23.777Z,99.99
2017-04-25T02:35:04.301Z,99.99
2017-04-25T02:35:44.818Z,99.99
2017-04-25T02:36:25.352Z,99.99
2017-04-25T02:37:05.882Z,99.99
2017-04-25T02:37:46.413Z,99.99
2017-04-25T02:38:26.944Z,99.99
2017-04-25T02:39:07.474Z,99.99
2017-04-25T02:39:47.999Z,99.99
2017-04-25T02:40:28.527Z,99.99
2017-04-25T02:41:09.056Z,99.99
2017-04-25T02:41:49.599Z,99.99
2017-04-25T02:42:30.123Z,99.99
2017-04-25T02:43:10.652Z,99.99
2017-04-25T02:43:51.179Z,99.99
2017-04-25T02:44:31.715Z,99.99
2017-04-25T02:45:12.251Z,99.99
2017-04-25T02:45:52.778Z,99.99
2017-04-25T02:46:33.320Z,99.99
2017-04-25T02:47:13.854Z,99.99
2017-04-25T02:47:54.378Z,99.99
2017-04-25T02:48:34.911Z,99.99
2017-04-25T02:49:15.447Z,99.99
2017-04-25T02:49:55.974Z,99.99
2017-04-25T02:50:36.510Z,99.99
2017-04-25T02:51:17.045Z,99.99
2017-04-25T02:51:57.585Z,99.99
2017-04-25T02:52:38.116Z,99.99
2017-04-25T02:53:18.653Z,99.99
2017-04-25T02:53:59.182Z,99.99
2017-04-25T02:54:39.719Z,99.99
2017-04-25T02:55:20.251Z,99.99
2017-04-25T02:56:00.789Z,99.99
2017-04-25T02:56:41.324Z,99.99
2017-04-25T02:57:21.840Z,99.99
2017-04-25T02:58:02.361Z,99.99
2017-04-25T02:58:42.897Z,99.99
2017-04-25T02:59:23.428Z,99.99
2017-04-25T03:00:04.002Z,99.99
2017-04-25T03:00:44.542Z,99.99
2017-04-25T03:01:25.079Z,99.93
2017-04-25T03:02:05.611Z,99.74
2017-04-25T03:02:46.137Z,99.12
2017-04-25T03:03:26.667Z,98.36
2017-04-25T03:04:07.208Z,98.65
2017-04-25T03:04:48.307Z,98.08
2017-04-25T03:05:28.810Z,96.84
2017-04-25T03:06:10.316Z,97.41
2017-04-25T03:06:51.307Z,97.13
2017-04-25T03:07:31.824Z,96.84
2017-04-25T03:08:13.810Z,96.74
2017-04-25T03:08:57.313Z,96.84
2017-04-25T03:09:36.916Z,96.46
2017-04-25T03:10:17.455Z,96.65
2017-04-25T03:10:57.993Z,96.46
2017-04-25T03:11:38.520Z,96.65
2017-04-25T03:12:19.052Z,96.74
2017-04-25T03:12:59.580Z,95.32
2017-04-25T03:13:40.102Z,95.7
2017-04-25T03:14:35.281Z,95.79
2017-04-25T03:15:15.777Z,95.98
2017-04-25T03:15:56.301Z,95.7
2017-04-25T03:16:36.870Z,95.51
2017-04-25T03:17:17.354Z,94.93
2017-04-25T03:17:57.909Z,94.93
2017-04-25T03:18:38.387Z,94.7
2017-04-25T03:19:18.928Z,93.84
2017-04-25T03:19:59.432Z,93.75
2017-04-25T03:20:41.314Z,92.03
2017-04-25T03:21:21.315Z,91.94
2017-04-25T03:22:02.155Z,90.33
2017-04-25T03:22:46.850Z,89.47
2017-04-25T03:23:27.508Z,89.47
2017-04-25T03:24:08.032Z,89
2017-04-25T03:24:48.568Z,88.42
2017-04-25T03:25:29.724Z,86.61
2017-04-25T03:26:12.885Z,86.24
2017-04-25T03:26:53.402Z,85.1
2017-04-25T03:27:36.321Z,84.52
2017-04-25T03:28:15.408Z,84.05
2017-04-25T03:28:57.363Z,83.39
2017-04-25T03:29:40.081Z,82.01
2017-04-25T03:30:21.489Z,81.54
2017-04-25T03:31:03.817Z,81.16
2017-04-25T03:31:44.453Z,80.02
2017-04-25T03:32:26.317Z,79.16
2017-04-25T03:33:06.201Z,78.78
2017-04-25T03:33:47.567Z,78.4
2017-04-25T03:34:28.983Z,77.83
2017-04-25T03:35:10.816Z,77.64
2017-04-25T03:35:51.816Z,77.64
2017-04-25T03:36:31.174Z,78.88
2017-04-25T03:37:13.154Z,78.88
2017-04-25T03:37:53.672Z,78.02
2017-04-25T03:38:34.243Z,78.02
2017-04-25T03:39:14.762Z,76.88
2017-04-25T03:39:55.818Z,76.97
2017-04-25T03:40:35.836Z,76.69
2017-04-25T03:41:16.323Z,76.4
2017-04-25T03:41:57.816Z,76.03
2017-04-25T03:42:38.320Z,75.93
2017-04-25T03:43:18.119Z,75.36
2017-04-25T03:43:58.658Z,75.74
2017-04-25T03:44:39.177Z,75.45
2017-04-25T03:45:19.682Z,75.36
2017-04-25T03:46:00.969Z,74.88
2017-04-25T03:46:42.458Z,75.07
2017-04-25T03:47:24.819Z,74.18
2017-04-25T03:48:05.002Z,74.47
2017-04-25T03:48:46.317Z,74.18
2017-04-25T03:49:26.823Z,74.18
2017-04-25T03:50:09.319Z,74.08
2017-04-25T03:50:51.177Z,73.8
2017-04-25T03:51:31.711Z,73.8
2017-04-25T03:52:12.821Z,73.93
2017-04-25T03:52:59.485Z,73.74
2017-04-25T03:53:40.681Z,73.93
2017-04-25T03:54:22.824Z,73.74
2017-04-25T03:55:03.370Z,73.74
2017-04-25T03:55:43.902Z,73.74
2017-04-25T03:56:24.421Z,73.74
2017-04-25T03:57:06.820Z,73.84
2017-04-25T03:57:46.346Z,73.65
2017-04-25T03:58:29.323Z,73.55
2017-04-25T03:59:10.324Z,73.55
2017-04-25T03:59:50.823Z,73.65
2017-04-25T04:00:32.475Z,74.41
2017-04-25T04:01:13.772Z,74.51
2017-04-25T04:01:54.831Z,73.93
2017-04-25T04:02:35.983Z,73.65
2017-04-25T04:03:17.826Z,74.51
2017-04-25T04:03:56.912Z,73.93
2017-04-25T04:04:37.441Z,74.22
2017-04-25T04:05:19.608Z,73.55
2017-04-25T04:06:00.750Z,73.74
2017-04-25T04:06:42.900Z,73.74
2017-04-25T04:07:27.966Z,73.93
2017-04-25T04:08:09.323Z,73.18
2017-04-25T04:08:49.036Z,73.27
2017-04-25T04:09:30.324Z,72.79
2017-04-25T04:10:10.076Z,73.08
2017-04-25T04:10:51.825Z,72.41
2017-04-25T04:11:31.708Z,72.79
2017-04-25T04:12:13.105Z,72.13
2017-04-25T04:12:54.323Z,71.66
2017-04-25T04:13:35.066Z,71.66
2017-04-25T04:14:15.566Z,71.56
2017-04-25T04:14:56.102Z,70.89
2017-04-25T04:15:37.327Z,70.61
2017-04-25T04:16:18.110Z,70.32
2017-04-25T04:16:59.548Z,70.23
2017-04-25T04:17:40.824Z,69.37
2017-04-25T04:18:21.826Z,69.27
2017-04-25T04:19:01.829Z,68.61
2017-04-25T04:19:42.338Z,68.52
2017-04-25T04:20:22.874Z,68.23
2017-04-25T04:21:03.396Z,67.44
2017-04-25T04:21:44.836Z,67.15
2017-04-25T04:22:24.438Z,66.96
2017-04-25T04:23:05.501Z,66.49
2017-04-25T04:23:46.021Z,66.11
2017-04-25T04:24:27.827Z,65.92
2017-04-25T04:25:07.346Z,65.35
2017-04-25T04:25:49.327Z,64.87
2017-04-25T04:26:30.327Z,64.87
2017-04-25T04:27:11.327Z,64.4
2017-04-25T04:27:50.897Z,64.59
2017-04-25T04:28:31.428Z,64.21
2017-04-25T04:29:11.944Z,63.92
2017-04-25T04:29:52.473Z,64.11
2017-04-25T04:30:33.008Z,64.21
2017-04-25T04:31:14.828Z,63.54
2017-04-25T04:33:29.728Z,63.45
2017-04-25T04:34:11.066Z,63.17
2017-04-25T04:34:51.599Z,63.26
2017-04-25T04:35:33.382Z,63.26
2017-04-25T04:36:12.632Z,63.07
2017-04-25T04:36:54.133Z,63.07
2017-04-25T04:37:34.662Z,63.35
2017-04-25T04:38:18.891Z,62.97
2017-04-25T04:39:01.886Z,62.97
2017-04-25T04:39:42.885Z,63.07
2017-04-25T04:40:22.768Z,62.88
2017-04-25T04:41:04.385Z,62.97
2017-04-25T04:41:44.885Z,62.97
2017-04-25T04:42:25.082Z,63.07
2017-04-25T04:43:06.885Z,63.26
2017-04-25T04:43:48.389Z,64.49
2017-04-25T04:44:28.890Z,64.21
2017-04-25T04:45:10.054Z,64.11
2017-04-25T04:45:51.608Z,64.49
2017-04-25T04:46:32.424Z,64.56
2017-04-25T04:47:13.263Z,64.4
2017-04-25T04:47:54.385Z,63.98
2017-04-25T04:48:34.573Z,64.17
2017-04-25T04:49:15.900Z,64.4
2017-04-25T04:49:56.140Z,63.89
2017-04-25T04:50:37.056Z,64.17
2017-04-25T04:51:17.843Z,64.3
2017-04-25T04:51:59.917Z,63.83
2017-04-25T04:52:39.386Z,64.02
2017-04-25T04:53:21.889Z,63.92
2017-04-25T04:54:01.526Z,64.02
2017-04-25T04:54:42.181Z,64.11
2017-04-25T04:55:22.815Z,63.54
2017-04-25T04:56:04.316Z,63.64
2017-04-25T04:56:46.439Z,63.35
2017-04-25T04:57:26.956Z,62.97
2017-04-25T04:58:07.047Z,63.73
2017-04-25T04:58:48.305Z,63.17
2017-04-25T04:59:29.073Z,63.17
2017-04-25T05:00:11.392Z,62.97
2017-04-25T05:00:51.471Z,62.88
2017-04-25T05:01:33.890Z,62.69
2017-04-25T05:02:16.891Z,62.4
2017-04-25T05:02:56.923Z,62.31
2017-04-25T05:03:37.863Z,62.21
2017-04-25T05:04:19.266Z,62.59
2017-04-25T05:05:00.055Z,62.69
2017-04-25T05:05:42.034Z,63.45
2017-04-25T05:06:22.566Z,63.54
2017-04-25T05:07:03.859Z,62.97
2017-04-25T05:07:44.352Z,63.17
2017-04-25T05:08:26.390Z,62.88
2017-04-25T05:09:06.897Z,63.54
2017-04-25T05:09:46.845Z,63.64
2017-04-25T05:10:27.365Z,62.85
2017-04-25T05:11:08.393Z,63.73
2017-04-25T05:11:49.167Z,63.23
2017-04-25T05:12:29.689Z,63.07
2017-04-25T05:13:10.751Z,63.73
2017-04-25T05:13:51.256Z,63.54
2017-04-25T05:14:32.536Z,63.35
2017-04-25T05:15:13.050Z,64.11
2017-04-25T05:15:54.322Z,63.89
2017-04-25T05:16:35.642Z,64.21
2017-04-25T05:17:16.173Z,64.02
2017-04-25T05:17:57.391Z,63.89
2017-04-25T05:18:37.325Z,64.02
2017-04-25T05:19:18.525Z,63.92
2017-04-25T05:19:59.796Z,64.21
2017-04-25T05:20:41.064Z,64.02
2017-04-25T05:21:21.556Z,65.5
2017-04-25T05:22:03.391Z,64.97
2017-04-25T05:22:43.393Z,65.69
2017-04-25T05:23:24.899Z,65.31
2017-04-25T05:24:05.040Z,66.11
2017-04-25T05:24:45.550Z,66.36
2017-04-25T05:25:26.074Z,66.39
2017-04-25T05:26:06.608Z,66.27
2017-04-25T05:26:47.132Z,66.83
2017-04-25T05:27:27.668Z,66.77
2017-04-25T05:28:08.203Z,66.87
2017-04-25T05:28:48.737Z,66.83
2017-04-25T05:29:29.253Z,66.96
2017-04-25T05:30:09.776Z,66.67
2017-04-25T05:30:50.321Z,66.67
2017-04-25T05:31:30.856Z,66.87
2017-04-25T05:32:11.378Z,66.87
2017-04-25T05:32:51.899Z,66.67
2017-04-25T05:33:32.419Z,66.58
2017-04-25T05:34:12.974Z,67.06
2017-04-25T05:34:53.500Z,67.06
2017-04-25T05:35:34.002Z,66.87
2017-04-25T05:36:14.522Z,67.06
2017-04-25T05:36:55.068Z,66.87
2017-04-25T05:37:35.610Z,66.58
2017-04-25T05:38:16.117Z,66.87
2017-04-25T05:38:56.657Z,67.15
2017-04-25T05:39:37.173Z,66.87
2017-04-25T05:40:17.710Z,67.06
2017-04-25T05:40:58.222Z,66.87
2017-04-25T05:41:38.755Z,66.77
2017-04-25T05:42:19.275Z,67.72
2017-04-25T05:42:59.816Z,67.82
2017-04-25T05:43:40.356Z,67.15
2017-04-25T05:44:20.870Z,67.44
2017-04-25T05:45:01.406Z,67.63
2017-04-25T05:45:41.930Z,67.82
2017-04-25T05:46:22.458Z,67.91
2017-04-25T05:47:03.082Z,67.82
2017-04-25T05:47:43.891Z,67.82
2017-04-25T05:48:24.413Z,68.96
2017-04-25T05:49:04.916Z,69.91
2017-04-25T05:49:45.425Z,69.62
2017-04-25T05:50:25.932Z,71.14
2017-04-25T05:51:06.448Z,72.75
2017-04-25T05:51:46.975Z,72.75
2017-04-25T05:52:27.490Z,73.14
2017-04-25T05:53:08.044Z,72.85
2017-04-25T05:53:48.500Z,72.95
2017-04-25T05:54:29.012Z,73.04
2017-04-25T05:55:09.542Z,74.37
2017-04-25T05:55:50.089Z,76.18
2017-04-25T05:56:30.584Z,75.7
2017-04-25T05:57:11.094Z,75.79
2017-04-25T05:57:51.626Z,75.7
2017-04-25T05:58:32.169Z,75.6
2017-04-25T05:59:12.711Z,75.7
2017-04-25T05:59:53.219Z,75.79
2017-04-25T06:00:33.743Z,75.7
2017-04-25T06:01:14.274Z,76.84
2017-04-25T06:01:54.792Z,77.89
2017-04-25T06:02:35.328Z,78.36
2017-04-25T06:03:15.869Z,78.27
2017-04-25T06:03:56.381Z,78.83
2017-04-25T06:04:36.971Z,78.93
2017-04-25T06:05:17.476Z,79.03
2017-04-25T06:05:58.007Z,78.64
2017-04-25T06:06:38.520Z,78.36
2017-04-25T06:07:19.047Z,78.45
2017-04-25T06:07:59.583Z,78.74
2017-04-25T06:08:40.130Z,79.12
2017-04-25T06:09:20.661Z,79.12
2017-04-25T06:10:01.256Z,78.83
2017-04-25T06:10:41.787Z,79.88
2017-04-25T06:11:22.313Z,79.6
2017-04-25T06:12:02.831Z,79.79
2017-04-25T06:12:43.354Z,80.93
2017-04-25T06:13:23.907Z,81.4
2017-04-25T06:14:04.480Z,81.21
2017-04-25T06:14:45.079Z,81.02
2017-04-25T06:15:25.600Z,81.49
2017-04-25T06:16:06.087Z,81.68
2017-04-25T06:16:46.676Z,82.07
2017-04-25T06:17:27.152Z,81.78
2017-04-25T06:18:07.761Z,82.07
2017-04-25T06:18:48.332Z,82.01
2017-04-25T06:19:28.870Z,82.58
2017-04-25T06:20:09.403Z,83.34
2017-04-25T06:20:49.941Z,83.06
2017-04-25T06:21:30.447Z,82.39
2017-04-25T06:22:10.971Z,82.58
2017-04-25T06:22:51.506Z,82.29
2017-04-25T06:23:32.021Z,81.82
2017-04-25T06:24:12.493Z,82.29
2017-04-25T06:24:53.045Z,82.2
2017-04-25T06:25:33.578Z,82.49
2017-04-25T06:26:14.101Z,82.68
2017-04-25T06:26:54.634Z,83.44
2017-04-25T06:27:35.156Z,83.15
2017-04-25T06:28:15.691Z,83.62
2017-04-25T06:28:56.195Z,84.2
2017-04-25T06:29:36.734Z,84.1
2017-04-25T06:30:17.262Z,84.39
2017-04-25T06:30:57.790Z,84.1
2017-04-25T06:31:38.324Z,84.1
2017-04-25T06:32:18.855Z,84.2
2017-04-25T06:32:59.393Z,84.2
2017-04-25T06:33:39.922Z,84.86
2017-04-25T06:34:20.440Z,84.39
2017-04-25T06:35:00.962Z,83.72
2017-04-25T06:35:41.507Z,84.48
2017-04-25T06:36:22.022Z,83.72
2017-04-25T06:37:02.566Z,83.91
2017-04-25T06:37:43.084Z,84.2
2017-04-25T06:38:23.623Z,83.53
2017-04-25T06:39:04.157Z,84.01
2017-04-25T06:39:44.749Z,83.82
2017-04-25T06:40:25.330Z,83.82
2017-04-25T06:41:05.852Z,83.15
2017-04-25T06:41:46.386Z,83.25
2017-04-25T06:42:26.898Z,82.96
2017-04-25T06:43:07.428Z,82.68
2017-04-25T06:43:47.958Z,82.49
2017-04-25T06:44:28.484Z,82.58
2017-04-25T06:45:09.028Z,82.39
2017-04-25T06:45:49.559Z,82.49
2017-04-25T06:46:30.096Z,82.77
2017-04-25T06:47:10.611Z,82.01
2017-04-25T06:47:51.136Z,81.73
2017-04-25T06:48:31.677Z,82.1
2017-04-25T06:49:12.216Z,82.1
2017-04-25T06:49:52.753Z,81.44
2017-04-25T06:50:33.243Z,81.16
2017-04-25T06:51:13.776Z,81.44
2017-04-25T06:51:54.302Z,81.35
2017-04-25T06:52:34.825Z,81.06
2017-04-25T06:53:15.344Z,80.77
2017-04-25T06:53:55.880Z,80.3
2017-04-25T06:54:36.410Z,80.49
2017-04-25T06:55:16.931Z,80.49
2017-04-25T06:55:57.473Z,80.11
2017-04-25T06:56:37.986Z,80.77
2017-04-25T06:57:18.503Z,81.06
2017-04-25T06:57:59.024Z,80.96
2017-04-25T06:58:39.549Z,82.49
2017-04-25T06:59:20.051Z,81.73
2017-04-25T07:00:00.562Z,80.49
2017-04-25T07:00:41.089Z,80.58
2017-04-25T07:01:21.621Z,78.93
2017-04-25T07:02:02.177Z,78.27
2017-04-25T07:02:42.648Z,77.31
2017-04-25T07:03:23.184Z,78.08
2017-04-25T07:04:03.719Z,77.98
2017-04-25T07:04:44.253Z,77.6
2017-04-25T07:05:24.792Z,76.65
2017-04-25T07:06:05.329Z,76.65
2017-04-25T07:06:45.863Z,75.99
2017-04-25T07:07:26.393Z,75.79
2017-04-25T07:08:06.915Z,75.23
2017-04-25T07:08:47.445Z,75.79
2017-04-25T07:09:27.957Z,75.99
2017-04-25T07:10:08.498Z,76.27
2017-04-25T07:10:49.018Z,75.79
2017-04-25T07:11:29.522Z,75.7
2017-04-25T07:12:10.082Z,75.51
2017-04-25T07:12:50.535Z,75.42
2017-04-25T07:13:31.038Z,75.51
2017-04-25T07:14:11.588Z,75.6
2017-04-25T07:14:52.100Z,74.66
2017-04-25T07:15:32.640Z,74.94
2017-04-25T07:16:13.146Z,74.56
2017-04-25T07:16:53.643Z,74.27
2017-04-25T07:17:34.158Z,74.37
2017-04-25T07:18:14.678Z,74.66
2017-04-25T07:18:55.179Z,74.94
2017-04-25T07:19:35.700Z,74.56
2017-04-25T07:20:16.229Z,74.94
2017-04-25T07:20:56.741Z,74.47
2017-04-25T07:21:37.276Z,74.47
2017-04-25T07:22:17.843Z,74.37
2017-04-25T07:22:58.382Z,74.56
2017-04-25T07:23:38.907Z,76.46
2017-04-25T07:24:19.450Z,78.45
2017-04-25T07:25:00.014Z,77.98
2017-04-25T07:25:40.534Z,78.27
2017-04-25T07:26:21.063Z,78.93
2017-04-25T07:27:01.581Z,79.12
2017-04-25T07:27:42.096Z,79.31
2017-04-25T07:28:22.617Z,79.03
2017-04-25T07:29:03.137Z,79.79
2017-04-25T07:29:43.668Z,79.6
2017-04-25T07:30:24.192Z,79.79
2017-04-25T07:31:04.723Z,79.6
2017-04-25T07:31:45.278Z,80.26
2017-04-25T07:32:25.816Z,84.82
2017-04-25T07:33:06.356Z,84.72
2017-04-25T07:33:46.881Z,85.77
2017-04-25T07:34:27.426Z,89.38
2017-04-25T07:35:07.946Z,89.19
2017-04-25T07:35:48.491Z,89.28
2017-04-25T07:36:29.019Z,89.38
2017-04-25T07:37:09.537Z,89.28
2017-04-25T07:37:50.065Z,88.81
2017-04-25T07:38:30.578Z,88.71
2017-04-25T07:39:11.138Z,88.15
2017-04-25T07:39:51.668Z,88.9
2017-04-25T07:40:32.185Z,87.95
2017-04-25T07:41:12.749Z,88.47
2017-04-25T07:41:53.276Z,88.38
2017-04-25T07:42:33.813Z,88.28
2017-04-25T07:43:14.345Z,88.85
2017-04-25T07:43:54.855Z,88.76
2017-04-25T07:44:35.384Z,88.38
2017-04-25T07:45:15.910Z,88.85
2017-04-25T07:45:56.426Z,89.14
2017-04-25T07:46:36.951Z,90.66
2017-04-25T07:47:17.447Z,91.52
2017-04-25T07:47:57.975Z,93.79
2017-04-25T07:48:38.485Z,93.89
2017-04-25T07:49:18.998Z,95.51
2017-04-25T07:49:59.543Z,96.45
2017-04-25T07:50:40.081Z,97.03
2017-04-25T07:51:20.625Z,99.99
2017-04-25T07:52:01.147Z,99.99
2017-04-25T07:52:41.679Z,99.99
2017-04-25T07:53:22.202Z,99.99
2017-04-25T07:54:02.760Z,99.99
2017-04-25T07:54:43.318Z,99.99
2017-04-25T07:55:23.874Z,99.99
2017-04-25T07:56:04.396Z,99.99
2017-04-25T07:56:44.897Z,99.99
2017-04-25T07:57:25.420Z,99.99
2017-04-25T07:58:05.935Z,99.99
2017-04-25T07:58:46.469Z,99.99
2017-04-25T07:59:26.990Z,99.99
2017-04-25T08:00:07.515Z,99.99
2017-04-25T08:00:48.034Z,99.99
2017-04-25T08:01:28.543Z,99.99
2017-04-25T08:02:09.053Z,99.99
2017-04-25T08:02:49.586Z,99.99
2017-04-25T08:03:30.130Z,99.99
2017-04-25T08:04:10.635Z,99.99
2017-04-25T08:04:51.203Z,99.99
2017-04-25T08:05:31.728Z,99.99
2017-04-25T08:06:12.263Z,99.99
2017-04-25T08:06:52.787Z,99.99
2017-04-25T08:07:33.311Z,99.99
2017-04-25T08:08:13.838Z,99.99
2017-04-25T08:08:54.344Z,99.99
2017-04-25T08:09:34.870Z,99.99
2017-04-25T08:10:15.401Z,99.99
2017-04-25T08:10:55.926Z,99.99
2017-04-25T08:11:36.498Z,99.99
2017-04-25T08:12:16.987Z,99.99
2017-04-25T08:12:57.505Z,99.99
2017-04-25T08:13:38.067Z,99.99
2017-04-25T08:14:18.617Z,99.99
2017-04-25T08:14:59.149Z,99.99
2017-04-25T08:15:39.647Z,99.99
2017-04-25T08:16:20.173Z,99.99
2017-04-25T08:17:00.714Z,99.99
2017-04-25T08:17:41.257Z,99.99
2017-04-25T08:18:21.821Z,99.99
2017-04-25T08:19:02.368Z,99.99
2017-04-25T08:19:42.877Z,99.99
2017-04-25T08:20:23.400Z,99.99
2017-04-25T08:21:04.001Z,99.99
2017-04-25T08:21:44.543Z,99.99
2017-04-25T08:22:25.013Z,99.99
2017-04-25T08:23:05.532Z,99.99
2017-04-25T08:23:46.036Z,99.99
2017-04-25T08:24:26.581Z,99.99
2017-04-25T08:25:07.101Z,99.99
2017-04-25T08:25:47.649Z,99.99
2017-04-25T08:26:28.204Z,99.99
2017-04-25T08:27:08.680Z,99.99
2017-04-25T08:27:49.248Z,99.99
2017-04-25T08:28:29.777Z,99.99
2017-04-25T08:29:10.287Z,99.99
2017-04-25T08:29:50.820Z,99.99
2017-04-25T08:30:31.351Z,99.99
2017-04-25T08:31:11.899Z,99.99
2017-04-25T08:31:52.427Z,99.99
2017-04-25T08:32:32.960Z,99.99
2017-04-25T08:33:13.484Z,99.99
2017-04-25T08:33:54.014Z,99.99
2017-04-25T08:34:34.528Z,99.99
2017-04-25T08:35:15.057Z,99.99
2017-04-25T08:35:55.578Z,99.99
2017-04-25T08:36:36.105Z,99.99
2017-04-25T08:37:16.639Z,99.99
2017-04-25T08:37:57.163Z,99.99
2017-04-25T08:38:37.696Z,99.99
2017-04-25T08:39:18.223Z,99.99
2017-04-25T08:39:58.755Z,99.99
2017-04-25T08:40:39.292Z,99.99
2017-04-25T08:41:19.822Z,99.99
2017-04-25T08:42:00.353Z,99.99
2017-04-25T08:42:40.878Z,99.99
2017-04-25T08:43:21.420Z,99.99
2017-04-25T08:44:01.954Z,99.99
2017-04-25T08:44:42.485Z,99.99
2017-04-25T08:45:23.017Z,99.99
2017-04-25T08:46:03.556Z,99.99
2017-04-25T08:46:44.148Z,99.99
2017-04-25T08:47:24.636Z,99.99
2017-04-25T08:48:05.137Z,99.99
2017-04-25T08:48:45.666Z,99.99
2017-04-25T08:49:26.190Z,99.99
2017-04-25T08:50:06.710Z,99.99